sensor_id;sensor_type;location;lat;lon;timestamp;P1;durP1;ratioP1;P2;durP2;ratioP2
9970;SDS011;5026;51.494;11.974;2022-08-27T00:01:06;13.35;;;9.20;;
9970;SDS011;5026;51.494;11.974;2022-08-27T00:03:33;18.40;;;8.43;;
9970;SDS011;5026;51.494;11.974;2022-08-27T00:06:01;14.20;;;9.18;;
9970;SDS011;5026;51.494;11.974;2022-08-27T00:08:28;16.20;;;8.75;;
9970;SDS011;5026;51.494;11.974;2022-08-27T00:10:57;15.63;;;9.90;;
9970;SDS011;5026;51.494;11.974;2022-08-27T00:13:24;16.80;;;9.70;;
9970;SDS011;5026;51.494;11.974;2022-08-27T00:15:51;13.50;;;9.52;;
9970;SDS011;5026;51.494;11.974;2022-08-27T00:18:17;18.42;;;10.55;;
9970;SDS011;5026;51.494;11.974;2022-08-27T00:20:45;17.83;;;10.50;;
9970;SDS011;5026;51.494;11.974;2022-08-27T00:23:12;23.98;;;12.45;;
9970;SDS011;5026;51.494;11.974;2022-08-27T00:25:38;20.05;;;12.98;;
9970;SDS011;5026;51.494;11.974;2022-08-27T00:28:07;18.27;;;12.43;;
9970;SDS011;5026;51.494;11.974;2022-08-27T00:30:34;20.13;;;12.40;;
9970;SDS011;5026;51.494;11.974;2022-08-27T00:33:01;21.65;;;12.65;;
9970;SDS011;5026;51.494;11.974;2022-08-27T00:35:28;16.67;;;13.68;;
9970;SDS011;5026;51.494;11.974;2022-08-27T00:37:56;20.30;;;14.43;;
9970;SDS011;5026;51.494;11.974;2022-08-27T00:40:24;24.38;;;15.43;;
9970;SDS011;5026;51.494;11.974;2022-08-27T00:42:52;22.08;;;16.05;;
9970;SDS011;5026;51.494;11.974;2022-08-27T00:45:21;28.75;;;18.13;;
9970;SDS011;5026;51.494;11.974;2022-08-27T00:47:51;24.00;;;15.65;;
9970;SDS011;5026;51.494;11.974;2022-08-27T00:50:22;23.40;;;16.20;;
9970;SDS011;5026;51.494;11.974;2022-08-27T00:52:56;24.00;;;16.30;;
9970;SDS011;5026;51.494;11.974;2022-08-27T00:55:27;35.25;;;17.17;;
9970;SDS011;5026;51.494;11.974;2022-08-27T00:58:02;28.52;;;16.88;;
9970;SDS011;5026;51.494;11.974;2022-08-27T01:00:36;28.98;;;17.23;;
9970;SDS011;5026;51.494;11.974;2022-08-27T01:03:03;26.73;;;18.25;;
9970;SDS011;5026;51.494;11.974;2022-08-27T01:05:31;24.10;;;17.02;;
9970;SDS011;5026;51.494;11.974;2022-08-27T01:08:01;28.80;;;18.48;;
9970;SDS011;5026;51.494;11.974;2022-08-27T01:10:31;27.88;;;17.30;;
9970;SDS011;5026;51.494;11.974;2022-08-27T01:12:59;31.15;;;17.88;;
9970;SDS011;5026;51.494;11.974;2022-08-27T01:15:27;27.85;;;17.85;;
9970;SDS011;5026;51.494;11.974;2022-08-27T01:17:56;33.97;;;18.60;;
9970;SDS011;5026;51.494;11.974;2022-08-27T01:20:26;30.00;;;16.98;;
9970;SDS011;5026;51.494;11.974;2022-08-27T01:22:58;26.33;;;16.92;;
9970;SDS011;5026;51.494;11.974;2022-08-27T01:25:32;26.25;;;16.38;;
9970;SDS011;5026;51.494;11.974;2022-08-27T01:27:59;25.85;;;15.90;;
9970;SDS011;5026;51.494;11.974;2022-08-27T01:30:28;24.58;;;15.98;;
9970;SDS011;5026;51.494;11.974;2022-08-27T01:32:56;27.00;;;15.50;;
9970;SDS011;5026;51.494;11.974;2022-08-27T01:35:24;18.60;;;15.55;;
9970;SDS011;5026;51.494;11.974;2022-08-27T01:37:52;20.88;;;14.85;;
9970;SDS011;5026;51.494;11.974;2022-08-27T01:40:20;26.30;;;16.23;;
9970;SDS011;5026;51.494;11.974;2022-08-27T01:42:49;21.35;;;15.73;;
9970;SDS011;5026;51.494;11.974;2022-08-27T01:45:18;30.80;;;15.43;;
9970;SDS011;5026;51.494;11.974;2022-08-27T01:47:50;23.85;;;14.55;;
9970;SDS011;5026;51.494;11.974;2022-08-27T01:50:18;20.95;;;14.52;;
9970;SDS011;5026;51.494;11.974;2022-08-27T01:52:46;19.45;;;13.38;;
9970;SDS011;5026;51.494;11.974;2022-08-27T01:55:14;20.63;;;14.13;;
9970;SDS011;5026;51.494;11.974;2022-08-27T01:57:43;17.55;;;12.35;;
9970;SDS011;5026;51.494;11.974;2022-08-27T02:00:13;19.02;;;12.73;;
9970;SDS011;5026;51.494;11.974;2022-08-27T02:02:42;19.60;;;12.40;;
9970;SDS011;5026;51.494;11.974;2022-08-27T02:05:10;17.40;;;12.23;;
9970;SDS011;5026;51.494;11.974;2022-08-27T02:07:37;15.57;;;11.57;;
9970;SDS011;5026;51.494;11.974;2022-08-27T02:10:06;16.50;;;11.77;;
9970;SDS011;5026;51.494;11.974;2022-08-27T02:12:35;18.08;;;11.82;;
9970;SDS011;5026;51.494;11.974;2022-08-27T02:15:02;20.17;;;12.77;;
9970;SDS011;5026;51.494;11.974;2022-08-27T02:17:31;19.35;;;11.65;;
9970;SDS011;5026;51.494;11.974;2022-08-27T02:19:58;20.83;;;11.98;;
9970;SDS011;5026;51.494;11.974;2022-08-27T02:22:25;17.67;;;11.65;;
9970;SDS011;5026;51.494;11.974;2022-08-27T02:24:52;17.00;;;11.32;;
9970;SDS011;5026;51.494;11.974;2022-08-27T02:27:19;17.80;;;11.35;;
9970;SDS011;5026;51.494;11.974;2022-08-27T02:29:46;21.90;;;11.88;;
9970;SDS011;5026;51.494;11.974;2022-08-27T02:32:14;18.00;;;11.30;;
9970;SDS011;5026;51.494;11.974;2022-08-27T02:34:42;17.13;;;11.35;;
9970;SDS011;5026;51.494;11.974;2022-08-27T02:37:09;19.80;;;11.90;;
9970;SDS011;5026;51.494;11.974;2022-08-27T02:39:36;19.75;;;11.52;;
9970;SDS011;5026;51.494;11.974;2022-08-27T02:42:03;19.00;;;11.43;;
9970;SDS011;5026;51.494;11.974;2022-08-27T02:44:30;16.42;;;11.35;;
9970;SDS011;5026;51.494;11.974;2022-08-27T02:46:59;17.55;;;10.70;;
9970;SDS011;5026;51.494;11.974;2022-08-27T02:49:27;19.48;;;10.60;;
9970;SDS011;5026;51.494;11.974;2022-08-27T02:51:56;16.00;;;10.98;;
9970;SDS011;5026;51.494;11.974;2022-08-27T02:54:23;13.02;;;10.32;;
9970;SDS011;5026;51.494;11.974;2022-08-27T02:56:50;15.60;;;9.25;;
9970;SDS011;5026;51.494;11.974;2022-08-27T02:59:19;14.52;;;8.75;;
9970;SDS011;5026;51.494;11.974;2022-08-27T03:01:46;13.10;;;8.63;;
9970;SDS011;5026;51.494;11.974;2022-08-27T03:04:13;12.60;;;8.13;;
9970;SDS011;5026;51.494;11.974;2022-08-27T03:06:42;12.75;;;8.50;;
9970;SDS011;5026;51.494;11.974;2022-08-27T03:09:11;11.85;;;7.97;;
9970;SDS011;5026;51.494;11.974;2022-08-27T03:11:38;14.48;;;7.82;;
9970;SDS011;5026;51.494;11.974;2022-08-27T03:14:06;13.13;;;8.15;;
9970;SDS011;5026;51.494;11.974;2022-08-27T03:16:33;12.77;;;7.03;;
9970;SDS011;5026;51.494;11.974;2022-08-27T03:19:00;9.70;;;7.30;;
9970;SDS011;5026;51.494;11.974;2022-08-27T03:21:26;13.27;;;7.80;;
9970;SDS011;5026;51.494;11.974;2022-08-27T03:23:53;12.75;;;7.68;;
9970;SDS011;5026;51.494;11.974;2022-08-27T03:26:22;14.38;;;7.60;;
9970;SDS011;5026;51.494;11.974;2022-08-27T03:28:49;9.52;;;7.47;;
9970;SDS011;5026;51.494;11.974;2022-08-27T03:31:16;12.75;;;6.95;;
9970;SDS011;5026;51.494;11.974;2022-08-27T03:33:50;14.13;;;7.22;;
9970;SDS011;5026;51.494;11.974;2022-08-27T03:36:19;12.27;;;7.40;;
9970;SDS011;5026;51.494;11.974;2022-08-27T03:38:46;12.52;;;7.82;;
9970;SDS011;5026;51.494;11.974;2022-08-27T03:41:13;8.32;;;6.45;;
9970;SDS011;5026;51.494;11.974;2022-08-27T03:43:43;9.85;;;6.57;;
9970;SDS011;5026;51.494;11.974;2022-08-27T03:46:10;10.00;;;6.75;;
9970;SDS011;5026;51.494;11.974;2022-08-27T03:48:37;12.82;;;7.22;;
9970;SDS011;5026;51.494;11.974;2022-08-27T03:51:05;9.82;;;6.65;;
9970;SDS011;5026;51.494;11.974;2022-08-27T03:53:33;9.48;;;7.00;;
9970;SDS011;5026;51.494;11.974;2022-08-27T03:56:01;9.65;;;7.13;;
9970;SDS011;5026;51.494;11.974;2022-08-27T03:58:28;15.07;;;8.32;;
9970;SDS011;5026;51.494;11.974;2022-08-27T04:00:57;12.90;;;6.95;;
9970;SDS011;5026;51.494;11.974;2022-08-27T04:03:24;8.57;;;6.70;;
9970;SDS011;5026;51.494;11.974;2022-08-27T04:05:51;13.32;;;6.90;;
9970;SDS011;5026;51.494;11.974;2022-08-27T04:08:19;10.50;;;6.85;;
9970;SDS011;5026;51.494;11.974;2022-08-27T04:10:47;8.57;;;6.97;;
9970;SDS011;5026;51.494;11.974;2022-08-27T04:13:14;10.90;;;7.68;;
9970;SDS011;5026;51.494;11.974;2022-08-27T04:15:42;11.82;;;7.50;;
9970;SDS011;5026;51.494;11.974;2022-08-27T04:18:11;10.02;;;7.38;;
9970;SDS011;5026;51.494;11.974;2022-08-27T04:20:40;13.80;;;7.78;;
9970;SDS011;5026;51.494;11.974;2022-08-27T04:23:07;16.05;;;8.50;;
9970;SDS011;5026;51.494;11.974;2022-08-27T04:25:37;13.25;;;8.27;;
9970;SDS011;5026;51.494;11.974;2022-08-27T04:28:04;13.65;;;8.40;;
9970;SDS011;5026;51.494;11.974;2022-08-27T04:30:31;15.43;;;8.60;;
9970;SDS011;5026;51.494;11.974;2022-08-27T04:32:58;17.65;;;10.10;;
9970;SDS011;5026;51.494;11.974;2022-08-27T04:35:26;14.55;;;9.30;;
9970;SDS011;5026;51.494;11.974;2022-08-27T04:37:53;17.30;;;10.30;;
9970;SDS011;5026;51.494;11.974;2022-08-27T04:40:21;22.83;;;12.73;;
9970;SDS011;5026;51.494;11.974;2022-08-27T04:43:09;21.15;;;12.75;;
9970;SDS011;5026;51.494;11.974;2022-08-27T04:45:40;24.42;;;14.90;;
9970;SDS011;5026;51.494;11.974;2022-08-27T04:48:08;19.27;;;13.00;;
9970;SDS011;5026;51.494;11.974;2022-08-27T04:50:39;21.23;;;13.82;;
9970;SDS011;5026;51.494;11.974;2022-08-27T04:53:07;25.85;;;15.88;;
9970;SDS011;5026;51.494;11.974;2022-08-27T04:55:39;27.65;;;15.70;;
9970;SDS011;5026;51.494;11.974;2022-08-27T04:58:07;26.38;;;16.15;;
9970;SDS011;5026;51.494;11.974;2022-08-27T05:00:39;29.25;;;16.88;;
9970;SDS011;5026;51.494;11.974;2022-08-27T05:03:07;26.08;;;16.88;;
9970;SDS011;5026;51.494;11.974;2022-08-27T05:05:34;29.73;;;18.25;;
9970;SDS011;5026;51.494;11.974;2022-08-27T05:08:02;25.88;;;17.60;;
9970;SDS011;5026;51.494;11.974;2022-08-27T05:10:30;32.05;;;18.85;;
9970;SDS011;5026;51.494;11.974;2022-08-27T05:12:57;36.38;;;20.73;;
9970;SDS011;5026;51.494;11.974;2022-08-27T05:15:24;35.85;;;21.67;;
9970;SDS011;5026;51.494;11.974;2022-08-27T05:17:51;38.20;;;22.60;;
9970;SDS011;5026;51.494;11.974;2022-08-27T05:20:18;37.58;;;21.92;;
9970;SDS011;5026;51.494;11.974;2022-08-27T05:22:45;36.72;;;21.38;;
9970;SDS011;5026;51.494;11.974;2022-08-27T05:25:14;35.75;;;22.25;;
9970;SDS011;5026;51.494;11.974;2022-08-27T05:27:41;35.10;;;20.77;;
9970;SDS011;5026;51.494;11.974;2022-08-27T05:30:08;35.45;;;21.65;;
9970;SDS011;5026;51.494;11.974;2022-08-27T05:32:36;35.08;;;20.80;;
9970;SDS011;5026;51.494;11.974;2022-08-27T05:35:03;38.15;;;21.85;;
9970;SDS011;5026;51.494;11.974;2022-08-27T05:37:31;39.38;;;22.20;;
9970;SDS011;5026;51.494;11.974;2022-08-27T05:39:58;40.63;;;23.63;;
9970;SDS011;5026;51.494;11.974;2022-08-27T05:42:27;40.90;;;22.50;;
9970;SDS011;5026;51.494;11.974;2022-08-27T05:44:55;42.00;;;25.27;;
9970;SDS011;5026;51.494;11.974;2022-08-27T05:47:22;42.65;;;24.80;;
9970;SDS011;5026;51.494;11.974;2022-08-27T05:49:50;43.35;;;26.25;;
9970;SDS011;5026;51.494;11.974;2022-08-27T05:52:17;46.53;;;23.38;;
9970;SDS011;5026;51.494;11.974;2022-08-27T05:54:45;44.95;;;26.42;;
9970;SDS011;5026;51.494;11.974;2022-08-27T05:57:12;48.08;;;25.35;;
9970;SDS011;5026;51.494;11.974;2022-08-27T05:59:40;40.83;;;24.48;;
9970;SDS011;5026;51.494;11.974;2022-08-27T06:02:39;41.60;;;24.35;;
9970;SDS011;5026;51.494;11.974;2022-08-27T06:05:06;45.95;;;24.77;;
9970;SDS011;5026;51.494;11.974;2022-08-27T06:07:34;46.75;;;25.88;;
9970;SDS011;5026;51.494;11.974;2022-08-27T06:10:00;41.55;;;24.08;;
9970;SDS011;5026;51.494;11.974;2022-08-27T06:12:31;47.65;;;25.10;;
9970;SDS011;5026;51.494;11.974;2022-08-27T06:15:00;44.58;;;23.35;;
9970;SDS011;5026;51.494;11.974;2022-08-27T06:17:27;42.40;;;22.70;;
9970;SDS011;5026;51.494;11.974;2022-08-27T06:19:54;43.10;;;22.88;;
9970;SDS011;5026;51.494;11.974;2022-08-27T06:22:22;45.47;;;24.48;;
9970;SDS011;5026;51.494;11.974;2022-08-27T06:24:49;38.72;;;21.70;;
9970;SDS011;5026;51.494;11.974;2022-08-27T06:27:16;40.15;;;23.88;;
9970;SDS011;5026;51.494;11.974;2022-08-27T06:29:44;39.42;;;22.40;;
9970;SDS011;5026;51.494;11.974;2022-08-27T06:32:13;34.05;;;21.25;;
9970;SDS011;5026;51.494;11.974;2022-08-27T06:34:40;38.58;;;21.92;;
9970;SDS011;5026;51.494;11.974;2022-08-27T06:37:07;33.78;;;19.95;;
9970;SDS011;5026;51.494;11.974;2022-08-27T06:39:35;37.58;;;21.30;;
9970;SDS011;5026;51.494;11.974;2022-08-27T06:42:03;33.15;;;20.63;;
9970;SDS011;5026;51.494;11.974;2022-08-27T06:44:31;34.67;;;20.33;;
9970;SDS011;5026;51.494;11.974;2022-08-27T06:46:58;34.08;;;20.35;;
9970;SDS011;5026;51.494;11.974;2022-08-27T06:49:29;30.38;;;18.65;;
9970;SDS011;5026;51.494;11.974;2022-08-27T06:52:01;33.60;;;18.83;;
9970;SDS011;5026;51.494;11.974;2022-08-27T06:54:28;33.00;;;19.23;;
9970;SDS011;5026;51.494;11.974;2022-08-27T06:56:57;32.08;;;18.65;;
9970;SDS011;5026;51.494;11.974;2022-08-27T06:59:24;32.63;;;18.90;;
9970;SDS011;5026;51.494;11.974;2022-08-27T07:01:52;31.05;;;18.48;;
9970;SDS011;5026;51.494;11.974;2022-08-27T07:04:20;32.97;;;18.65;;
9970;SDS011;5026;51.494;11.974;2022-08-27T07:06:49;28.15;;;18.13;;
9970;SDS011;5026;51.494;11.974;2022-08-27T07:09:16;29.60;;;18.23;;
9970;SDS011;5026;51.494;11.974;2022-08-27T07:11:45;23.35;;;15.93;;
9970;SDS011;5026;51.494;11.974;2022-08-27T07:14:12;27.50;;;16.02;;
9970;SDS011;5026;51.494;11.974;2022-08-27T07:16:38;23.77;;;15.20;;
9970;SDS011;5026;51.494;11.974;2022-08-27T07:19:07;30.50;;;15.73;;
9970;SDS011;5026;51.494;11.974;2022-08-27T07:21:34;27.20;;;15.40;;
9970;SDS011;5026;51.494;11.974;2022-08-27T07:24:03;27.60;;;15.20;;
9970;SDS011;5026;51.494;11.974;2022-08-27T07:26:31;26.08;;;16.42;;
9970;SDS011;5026;51.494;11.974;2022-08-27T07:28:58;26.20;;;15.30;;
9970;SDS011;5026;51.494;11.974;2022-08-27T07:31:26;25.75;;;14.85;;
9970;SDS011;5026;51.494;11.974;2022-08-27T07:33:53;24.88;;;14.32;;
9970;SDS011;5026;51.494;11.974;2022-08-27T07:36:20;27.73;;;14.88;;
9970;SDS011;5026;51.494;11.974;2022-08-27T07:38:47;22.33;;;15.45;;
9970;SDS011;5026;51.494;11.974;2022-08-27T07:41:17;25.90;;;15.18;;
9970;SDS011;5026;51.494;11.974;2022-08-27T07:43:44;20.30;;;13.77;;
9970;SDS011;5026;51.494;11.974;2022-08-27T07:46:30;22.23;;;13.93;;
9970;SDS011;5026;51.494;11.974;2022-08-27T07:48:57;21.60;;;14.10;;
9970;SDS011;5026;51.494;11.974;2022-08-27T07:51:24;23.98;;;14.18;;
9970;SDS011;5026;51.494;11.974;2022-08-27T07:53:53;21.75;;;13.90;;
9970;SDS011;5026;51.494;11.974;2022-08-27T07:56:22;21.85;;;13.93;;
9970;SDS011;5026;51.494;11.974;2022-08-27T07:58:49;21.35;;;13.45;;
9970;SDS011;5026;51.494;11.974;2022-08-27T08:01:16;21.75;;;13.35;;
9970;SDS011;5026;51.494;11.974;2022-08-27T08:03:43;20.52;;;12.73;;
9970;SDS011;5026;51.494;11.974;2022-08-27T08:06:12;18.85;;;13.02;;
9970;SDS011;5026;51.494;11.974;2022-08-27T08:08:40;20.17;;;11.73;;
9970;SDS011;5026;51.494;11.974;2022-08-27T08:11:08;18.85;;;12.30;;
9970;SDS011;5026;51.494;11.974;2022-08-27T08:13:37;19.23;;;12.15;;
9970;SDS011;5026;51.494;11.974;2022-08-27T08:16:05;18.55;;;11.65;;
9970;SDS011;5026;51.494;11.974;2022-08-27T08:18:32;19.42;;;11.65;;
9970;SDS011;5026;51.494;11.974;2022-08-27T08:21:00;19.65;;;10.75;;
9970;SDS011;5026;51.494;11.974;2022-08-27T08:23:28;18.13;;;11.38;;
9970;SDS011;5026;51.494;11.974;2022-08-27T08:25:56;18.02;;;12.43;;
9970;SDS011;5026;51.494;11.974;2022-08-27T08:28:23;18.25;;;11.85;;
9970;SDS011;5026;51.494;11.974;2022-08-27T08:30:53;18.73;;;12.32;;
9970;SDS011;5026;51.494;11.974;2022-08-27T08:33:20;18.50;;;11.25;;
9970;SDS011;5026;51.494;11.974;2022-08-27T08:35:47;18.25;;;10.82;;
9970;SDS011;5026;51.494;11.974;2022-08-27T08:38:15;19.50;;;12.30;;
9970;SDS011;5026;51.494;11.974;2022-08-27T08:40:43;23.13;;;12.50;;
9970;SDS011;5026;51.494;11.974;2022-08-27T08:43:19;27.23;;;14.35;;
9970;SDS011;5026;51.494;11.974;2022-08-27T08:45:54;24.25;;;13.13;;
9970;SDS011;5026;51.494;11.974;2022-08-27T08:48:23;24.92;;;13.10;;
9970;SDS011;5026;51.494;11.974;2022-08-27T08:50:56;25.73;;;12.45;;
9970;SDS011;5026;51.494;11.974;2022-08-27T08:53:30;24.58;;;13.30;;
9970;SDS011;5026;51.494;11.974;2022-08-27T08:56:03;25.85;;;13.95;;
9970;SDS011;5026;51.494;11.974;2022-08-27T08:58:35;22.95;;;13.63;;
9970;SDS011;5026;51.494;11.974;2022-08-27T09:01:10;26.13;;;13.63;;
9970;SDS011;5026;51.494;11.974;2022-08-27T09:03:49;27.15;;;14.63;;
9970;SDS011;5026;51.494;11.974;2022-08-27T09:06:21;25.38;;;13.95;;
9970;SDS011;5026;51.494;11.974;2022-08-27T09:08:58;26.40;;;14.68;;
9970;SDS011;5026;51.494;11.974;2022-08-27T09:11:31;23.10;;;13.75;;
9970;SDS011;5026;51.494;11.974;2022-08-27T09:14:02;27.38;;;14.05;;
9970;SDS011;5026;51.494;11.974;2022-08-27T09:16:33;28.83;;;14.18;;
9970;SDS011;5026;51.494;11.974;2022-08-27T09:19:02;22.27;;;13.23;;
9970;SDS011;5026;51.494;11.974;2022-08-27T09:21:32;23.85;;;12.82;;
9970;SDS011;5026;51.494;11.974;2022-08-27T09:24:14;26.85;;;13.88;;
9970;SDS011;5026;51.494;11.974;2022-08-27T09:26:47;26.85;;;12.80;;
9970;SDS011;5026;51.494;11.974;2022-08-27T09:29:15;20.92;;;11.88;;
9970;SDS011;5026;51.494;11.974;2022-08-27T09:31:47;17.27;;;11.55;;
9970;SDS011;5026;51.494;11.974;2022-08-27T09:34:19;16.77;;;10.98;;
9970;SDS011;5026;51.494;11.974;2022-08-27T09:36:48;22.30;;;11.48;;
9970;SDS011;5026;51.494;11.974;2022-08-27T09:39:24;18.15;;;10.63;;
9970;SDS011;5026;51.494;11.974;2022-08-27T09:41:57;20.27;;;11.65;;
9970;SDS011;5026;51.494;11.974;2022-08-27T09:44:24;17.52;;;10.55;;
9970;SDS011;5026;51.494;11.974;2022-08-27T09:46:53;16.48;;;10.35;;
9970;SDS011;5026;51.494;11.974;2022-08-27T09:49:22;17.33;;;10.48;;
9970;SDS011;5026;51.494;11.974;2022-08-27T09:51:49;20.38;;;11.85;;
9970;SDS011;5026;51.494;11.974;2022-08-27T09:54:25;17.05;;;10.60;;
9970;SDS011;5026;51.494;11.974;2022-08-27T09:56:57;15.40;;;9.75;;
9970;SDS011;5026;51.494;11.974;2022-08-27T09:59:25;16.10;;;9.80;;
9970;SDS011;5026;51.494;11.974;2022-08-27T10:02:01;22.33;;;9.23;;
9970;SDS011;5026;51.494;11.974;2022-08-27T10:04:34;18.02;;;10.18;;
9970;SDS011;5026;51.494;11.974;2022-08-27T10:07:13;16.75;;;9.20;;
9970;SDS011;5026;51.494;11.974;2022-08-27T10:09:46;13.52;;;8.20;;
9970;SDS011;5026;51.494;11.974;2022-08-27T10:12:19;15.05;;;8.70;;
9970;SDS011;5026;51.494;11.974;2022-08-27T10:14:53;14.23;;;9.15;;
9970;SDS011;5026;51.494;11.974;2022-08-27T10:17:26;12.48;;;8.52;;
9970;SDS011;5026;51.494;11.974;2022-08-27T10:20:03;12.95;;;7.95;;
9970;SDS011;5026;51.494;11.974;2022-08-27T10:22:37;13.05;;;8.25;;
9970;SDS011;5026;51.494;11.974;2022-08-27T10:25:16;13.32;;;8.43;;
9970;SDS011;5026;51.494;11.974;2022-08-27T10:27:53;15.82;;;8.60;;
9970;SDS011;5026;51.494;11.974;2022-08-27T10:30:32;11.60;;;7.57;;
9970;SDS011;5026;51.494;11.974;2022-08-27T10:33:14;12.63;;;7.00;;
9970;SDS011;5026;51.494;11.974;2022-08-27T10:35:46;10.25;;;7.53;;
9970;SDS011;5026;51.494;11.974;2022-08-27T10:38:17;14.30;;;7.72;;
9970;SDS011;5026;51.494;11.974;2022-08-27T10:40:49;12.15;;;7.10;;
9970;SDS011;5026;51.494;11.974;2022-08-27T10:43:22;11.82;;;6.70;;
9970;SDS011;5026;51.494;11.974;2022-08-27T10:46:17;12.57;;;6.93;;
9970;SDS011;5026;51.494;11.974;2022-08-27T10:49:01;11.10;;;6.93;;
9970;SDS011;5026;51.494;11.974;2022-08-27T10:51:35;11.80;;;6.72;;
9970;SDS011;5026;51.494;11.974;2022-08-27T10:54:09;11.70;;;6.68;;
9970;SDS011;5026;51.494;11.974;2022-08-27T10:56:48;10.93;;;6.55;;
9970;SDS011;5026;51.494;11.974;2022-08-27T10:59:20;8.68;;;6.20;;
9970;SDS011;5026;51.494;11.974;2022-08-27T11:01:55;9.45;;;5.65;;
9970;SDS011;5026;51.494;11.974;2022-08-27T11:04:30;10.77;;;7.25;;
9970;SDS011;5026;51.494;11.974;2022-08-27T11:07:03;9.70;;;6.53;;
9970;SDS011;5026;51.494;11.974;2022-08-27T11:09:35;9.20;;;6.70;;
9970;SDS011;5026;51.494;11.974;2022-08-27T11:12:08;9.63;;;6.20;;
9970;SDS011;5026;51.494;11.974;2022-08-27T11:14:41;8.52;;;6.00;;
9970;SDS011;5026;51.494;11.974;2022-08-27T11:17:12;8.13;;;6.35;;
9970;SDS011;5026;51.494;11.974;2022-08-27T11:19:46;8.10;;;6.22;;
9970;SDS011;5026;51.494;11.974;2022-08-27T11:22:25;12.40;;;6.93;;
9970;SDS011;5026;51.494;11.974;2022-08-27T11:24:58;12.38;;;6.55;;
9970;SDS011;5026;51.494;11.974;2022-08-27T11:27:31;11.23;;;6.32;;
9970;SDS011;5026;51.494;11.974;2022-08-27T11:30:02;15.20;;;6.35;;
9970;SDS011;5026;51.494;11.974;2022-08-27T11:32:33;11.10;;;6.72;;
9970;SDS011;5026;51.494;11.974;2022-08-27T11:35:11;9.48;;;6.60;;
9970;SDS011;5026;51.494;11.974;2022-08-27T11:37:54;10.38;;;6.93;;
9970;SDS011;5026;51.494;11.974;2022-08-27T11:40:40;9.88;;;6.68;;
9970;SDS011;5026;51.494;11.974;2022-08-27T11:43:20;8.82;;;6.32;;
9970;SDS011;5026;51.494;11.974;2022-08-27T11:45:53;13.02;;;6.75;;
9970;SDS011;5026;51.494;11.974;2022-08-27T11:48:23;10.88;;;6.85;;
9970;SDS011;5026;51.494;11.974;2022-08-27T11:50:59;10.27;;;7.03;;
9970;SDS011;5026;51.494;11.974;2022-08-27T11:53:29;10.98;;;7.25;;
9970;SDS011;5026;51.494;11.974;2022-08-27T11:56:08;16.10;;;7.40;;
9970;SDS011;5026;51.494;11.974;2022-08-27T11:58:40;12.00;;;7.22;;
9970;SDS011;5026;51.494;11.974;2022-08-27T12:01:13;13.73;;;7.20;;
9970;SDS011;5026;51.494;11.974;2022-08-27T12:03:41;10.52;;;6.55;;
9970;SDS011;5026;51.494;11.974;2022-08-27T12:08:52;9.93;;;6.60;;
9970;SDS011;5026;51.494;11.974;2022-08-27T12:11:25;12.35;;;7.43;;
9970;SDS011;5026;51.494;11.974;2022-08-27T12:14:05;9.32;;;6.32;;
9970;SDS011;5026;51.494;11.974;2022-08-27T12:16:41;10.32;;;7.03;;
9970;SDS011;5026;51.494;11.974;2022-08-27T12:22:13;7.75;;;6.20;;
9970;SDS011;5026;51.494;11.974;2022-08-27T12:24:57;12.75;;;6.75;;
9970;SDS011;5026;51.494;11.974;2022-08-27T12:27:31;10.15;;;6.28;;
9970;SDS011;5026;51.494;11.974;2022-08-27T12:30:01;14.13;;;6.70;;
9970;SDS011;5026;51.494;11.974;2022-08-27T12:32:36;12.63;;;8.40;;
9970;SDS011;5026;51.494;11.974;2022-08-27T12:35:09;11.15;;;6.78;;
9970;SDS011;5026;51.494;11.974;2022-08-27T12:37:43;12.82;;;7.47;;
9970;SDS011;5026;51.494;11.974;2022-08-27T12:40:16;12.75;;;6.60;;
9970;SDS011;5026;51.494;11.974;2022-08-27T12:42:46;11.38;;;6.43;;
9970;SDS011;5026;51.494;11.974;2022-08-27T12:45:17;17.80;;;6.57;;
9970;SDS011;5026;51.494;11.974;2022-08-27T12:47:49;13.45;;;6.65;;
9970;SDS011;5026;51.494;11.974;2022-08-27T12:50:19;12.77;;;7.45;;
9970;SDS011;5026;51.494;11.974;2022-08-27T12:52:54;12.18;;;6.88;;
9970;SDS011;5026;51.494;11.974;2022-08-27T12:55:42;12.68;;;7.18;;
9970;SDS011;5026;51.494;11.974;2022-08-27T12:58:38;11.13;;;6.32;;
9970;SDS011;5026;51.494;11.974;2022-08-27T13:01:19;10.70;;;6.40;;
9970;SDS011;5026;51.494;11.974;2022-08-27T13:03:56;12.95;;;6.25;;
9970;SDS011;5026;51.494;11.974;2022-08-27T13:06:25;11.70;;;6.97;;
9970;SDS011;5026;51.494;11.974;2022-08-27T13:08:56;13.98;;;7.00;;
9970;SDS011;5026;51.494;11.974;2022-08-27T13:11:25;13.10;;;7.70;;
9970;SDS011;5026;51.494;11.974;2022-08-27T13:14:03;11.10;;;7.45;;
9970;SDS011;5026;51.494;11.974;2022-08-27T13:16:32;12.02;;;6.80;;
9970;SDS011;5026;51.494;11.974;2022-08-27T13:18:59;8.88;;;6.00;;
9970;SDS011;5026;51.494;11.974;2022-08-27T13:21:27;10.07;;;6.75;;
9970;SDS011;5026;51.494;11.974;2022-08-27T13:23:58;9.55;;;6.93;;
9970;SDS011;5026;51.494;11.974;2022-08-27T13:26:27;10.50;;;6.15;;
9970;SDS011;5026;51.494;11.974;2022-08-27T13:28:58;12.05;;;5.80;;
9970;SDS011;5026;51.494;11.974;2022-08-27T13:31:26;12.23;;;6.07;;
9970;SDS011;5026;51.494;11.974;2022-08-27T13:33:54;10.48;;;6.60;;
9970;SDS011;5026;51.494;11.974;2022-08-27T13:36:27;13.70;;;6.30;;
9970;SDS011;5026;51.494;11.974;2022-08-27T13:38:55;9.60;;;6.03;;
9970;SDS011;5026;51.494;11.974;2022-08-27T13:41:26;13.30;;;5.90;;
9970;SDS011;5026;51.494;11.974;2022-08-27T13:43:57;8.13;;;6.35;;
9970;SDS011;5026;51.494;11.974;2022-08-27T13:46:33;9.02;;;6.53;;
9970;SDS011;5026;51.494;11.974;2022-08-27T13:49:11;10.77;;;6.85;;
9970;SDS011;5026;51.494;11.974;2022-08-27T13:51:42;13.48;;;8.27;;
9970;SDS011;5026;51.494;11.974;2022-08-27T13:54:11;20.27;;;9.90;;
9970;SDS011;5026;51.494;11.974;2022-08-27T13:56:38;14.35;;;9.00;;
9970;SDS011;5026;51.494;11.974;2022-08-27T13:59:08;16.42;;;8.70;;
9970;SDS011;5026;51.494;11.974;2022-08-27T14:01:36;16.83;;;9.32;;
9970;SDS011;5026;51.494;11.974;2022-08-27T14:04:04;16.13;;;9.35;;
9970;SDS011;5026;51.494;11.974;2022-08-27T14:06:34;16.80;;;8.68;;
9970;SDS011;5026;51.494;11.974;2022-08-27T14:09:07;13.48;;;7.95;;
9970;SDS011;5026;51.494;11.974;2022-08-27T14:11:38;12.45;;;7.57;;
9970;SDS011;5026;51.494;11.974;2022-08-27T14:14:05;10.70;;;7.30;;
9970;SDS011;5026;51.494;11.974;2022-08-27T14:16:32;12.82;;;7.22;;
9970;SDS011;5026;51.494;11.974;2022-08-27T14:19:05;9.98;;;6.65;;
9970;SDS011;5026;51.494;11.974;2022-08-27T14:21:34;9.77;;;6.57;;
9970;SDS011;5026;51.494;11.974;2022-08-27T14:24:03;9.43;;;6.35;;
9970;SDS011;5026;51.494;11.974;2022-08-27T14:26:31;11.43;;;5.95;;
9970;SDS011;5026;51.494;11.974;2022-08-27T14:28:59;11.93;;;6.28;;
9970;SDS011;5026;51.494;11.974;2022-08-27T14:31:26;9.02;;;6.38;;
9970;SDS011;5026;51.494;11.974;2022-08-27T14:33:53;10.57;;;6.65;;
9970;SDS011;5026;51.494;11.974;2022-08-27T14:36:20;7.95;;;6.50;;
9970;SDS011;5026;51.494;11.974;2022-08-27T14:38:48;10.70;;;6.40;;
9970;SDS011;5026;51.494;11.974;2022-08-27T14:41:16;9.50;;;6.43;;
9970;SDS011;5026;51.494;11.974;2022-08-27T14:43:44;12.85;;;6.55;;
9970;SDS011;5026;51.494;11.974;2022-08-27T14:46:15;8.32;;;6.68;;
9970;SDS011;5026;51.494;11.974;2022-08-27T14:48:46;11.52;;;7.00;;
9970;SDS011;5026;51.494;11.974;2022-08-27T14:51:15;13.75;;;6.22;;
9970;SDS011;5026;51.494;11.974;2022-08-27T14:53:47;9.48;;;6.50;;
9970;SDS011;5026;51.494;11.974;2022-08-27T14:56:15;12.68;;;6.93;;
9970;SDS011;5026;51.494;11.974;2022-08-27T14:58:42;9.40;;;6.53;;
9970;SDS011;5026;51.494;11.974;2022-08-27T15:01:09;13.02;;;6.18;;
9970;SDS011;5026;51.494;11.974;2022-08-27T15:03:38;7.07;;;5.60;;
9970;SDS011;5026;51.494;11.974;2022-08-27T15:06:12;10.88;;;5.28;;